createdAt,value
2016-12-07T00:00:12.575Z,62.58
2016-12-07T00:01:13.414Z,62.57
2016-12-07T00:02:12.557Z,62.56
2016-12-07T00:03:12.859Z,62.55
2016-12-07T00:04:12.873Z,62.55
2016-12-07T00:05:12.846Z,62.60
2016-12-07T00:06:12.049Z,62.59
2016-12-07T00:07:12.991Z,62.57
2016-12-07T00:08:12.751Z,62.59
2016-12-07T00:09:12.660Z,62.57
2016-12-07T00:10:13.117Z,62.59
2016-12-07T00:11:12.682Z,62.58
2016-12-07T00:12:13.520Z,62.55
2016-12-07T00:13:15.327Z,62.59
2016-12-07T00:14:14.218Z,62.62
2016-12-07T00:15:14.124Z,62.54
2016-12-07T00:16:12.697Z,62.58
2016-12-07T00:17:14.403Z,62.58
2016-12-07T00:18:12.552Z,62.60
2016-12-07T00:19:13.363Z,62.55
2016-12-07T00:20:12.955Z,62.54
2016-12-07T00:21:12.773Z,62.55
2016-12-07T00:22:12.958Z,62.54
2016-12-07T00:23:12.001Z,62.55
2016-12-07T00:24:12.891Z,62.56
2016-12-07T00:25:11.811Z,62.58
2016-12-07T00:26:13.366Z,62.56
2016-12-07T00:27:12.529Z,62.57
2016-12-07T00:28:13.186Z,62.55
2016-12-07T00:29:12.889Z,62.51
2016-12-07T00:30:13.109Z,62.50
2016-12-07T00:31:12.338Z,62.47
2016-12-07T00:32:14.016Z,62.47
2016-12-07T00:33:12.151Z,62.49
2016-12-07T00:34:12.207Z,62.43
2016-12-07T00:35:11.440Z,62.50
2016-12-07T00:36:13.187Z,62.46
2016-12-07T00:37:12.541Z,62.44
2016-12-07T00:38:12.870Z,62.45
2016-12-07T00:39:11.863Z,62.34
2016-12-07T00:40:13.336Z,61.70
2016-12-07T00:41:12.974Z,62.21
2016-12-07T00:42:12.781Z,62.34
2016-12-07T00:43:12.989Z,62.40
2016-12-07T00:44:11.985Z,62.42
2016-12-07T00:45:12.140Z,62.45
2016-12-07T00:46:13.052Z,62.42
2016-12-07T00:47:12.590Z,62.40
2016-12-07T00:48:12.517Z,62.43
2016-12-07T00:49:12.587Z,62.40
2016-12-07T00:50:12.695Z,62.38
2016-12-07T00:51:12.847Z,62.40
2016-12-07T00:52:12.852Z,62.44
2016-12-07T00:53:15.557Z,62.42
2016-12-07T00:54:12.497Z,62.42
2016-12-07T00:55:13.088Z,62.48
2016-12-07T00:56:12.240Z,62.45
2016-12-07T00:57:11.341Z,62.33
2016-12-07T00:58:13.006Z,61.41
2016-12-07T00:59:12.616Z,62.19
2016-12-07T01:00:13.248Z,62.32
2016-12-07T01:01:14.093Z,62.37
2016-12-07T01:02:12.798Z,62.36
2016-12-07T01:03:10.963Z,62.40
2016-12-07T01:04:11.176Z,61.37
2016-12-07T01:05:13.655Z,61.50
2016-12-07T01:06:15.058Z,62.06
2016-12-07T01:07:18.967Z,62.25
2016-12-07T01:08:13.401Z,62.17
2016-12-07T01:09:13.238Z,61.32
2016-12-07T01:10:14.194Z,61.06
2016-12-07T01:11:14.026Z,61.46
2016-12-07T01:12:12.294Z,62.02
2016-12-07T01:13:13.281Z,62.20
2016-12-07T01:14:13.807Z,62.25
2016-12-07T01:15:14.012Z,62.31
2016-12-07T01:16:12.907Z,62.33
2016-12-07T01:17:14.452Z,62.35
2016-12-07T01:18:13.321Z,62.35
2016-12-07T01:19:13.029Z,62.33
2016-12-07T01:20:12.586Z,62.37
2016-12-07T01:21:13.613Z,62.36
2016-12-07T01:22:13.375Z,62.38
2016-12-07T01:23:13.357Z,62.35
2016-12-07T01:24:12.680Z,62.39
2016-12-07T01:25:13.204Z,62.41
2016-12-07T01:26:12.661Z,62.43
2016-12-07T01:27:13.281Z,62.43
2016-12-07T01:28:13.394Z,62.39
2016-12-07T01:29:14.516Z,62.42
2016-12-07T01:30:13.766Z,62.44
2016-12-07T01:31:12.856Z,62.41
2016-12-07T01:32:12.054Z,62.28
2016-12-07T01:33:13.060Z,61.40
2016-12-07T01:34:14.711Z,61.52
2016-12-07T01:35:13.227Z,62.07
2016-12-07T01:36:14.053Z,62.25
2016-12-07T01:37:14.226Z,62.29
2016-12-07T01:38:12.905Z,62.34
2016-12-07T01:39:13.653Z,62.26
2016-12-07T01:40:14.525Z,61.42
2016-12-07T01:41:09.947Z,61.21
2016-12-07T01:42:12.762Z,61.05
2016-12-07T01:43:12.928Z,61.00
2016-12-07T01:44:13.326Z,61.91
2016-12-07T01:45:13.197Z,62.15
2016-12-07T01:46:12.616Z,62.24
2016-12-07T01:47:15.404Z,62.33
2016-12-07T01:48:13.482Z,62.33
2016-12-07T01:49:13.516Z,62.34
2016-12-07T01:50:13.673Z,62.36
2016-12-07T01:51:13.315Z,62.35
2016-12-07T01:52:13.242Z,62.36
2016-12-07T01:53:12.971Z,62.38
2016-12-07T01:54:18.754Z,62.39
2016-12-07T01:55:13.406Z,62.38
2016-12-07T01:56:14.021Z,62.37
2016-12-07T01:57:13.610Z,62.35
2016-12-07T01:58:12.754Z,62.38
2016-12-07T01:59:13.552Z,62.20
2016-12-07T02:00:14.284Z,61.40
2016-12-07T02:01:13.251Z,61.18
2016-12-07T02:02:13.124Z,61.31
2016-12-07T02:03:12.959Z,61.99
2016-12-07T02:04:12.426Z,62.12
2016-12-07T02:05:12.879Z,62.24
2016-12-07T02:06:14.647Z,62.11
2016-12-07T02:07:14.512Z,61.28
2016-12-07T02:08:13.210Z,61.09
2016-12-07T02:09:13.153Z,61.32
2016-12-07T02:10:11.349Z,61.97
2016-12-07T02:11:14.733Z,61.11
2016-12-07T02:12:13.374Z,61.07
2016-12-07T02:13:13.114Z,61.85
2016-12-07T02:14:13.605Z,62.08
2016-12-07T02:15:13.193Z,62.19
2016-12-07T02:16:12.499Z,62.28
2016-12-07T02:17:19.543Z,62.29
2016-12-07T02:18:13.671Z,62.30
2016-12-07T02:19:13.482Z,62.33
2016-12-07T02:20:13.775Z,62.33
2016-12-07T02:21:11.731Z,62.36
2016-12-07T02:22:13.163Z,61.38
2016-12-07T02:23:12.840Z,61.18
2016-12-07T02:24:13.560Z,61.07
2016-12-07T02:25:12.892Z,61.00
2016-12-07T02:26:13.264Z,60.92
2016-12-07T02:27:13.900Z,60.89
2016-12-07T02:28:13.383Z,61.83
2016-12-07T02:29:15.183Z,62.06
2016-12-07T02:30:12.882Z,62.23
2016-12-07T02:31:13.684Z,62.29
2016-12-07T02:32:15.227Z,62.32
2016-12-07T02:33:13.696Z,62.34
2016-12-07T02:34:13.719Z,62.36
2016-12-07T02:35:13.260Z,62.33
2016-12-07T02:36:12.692Z,62.35
2016-12-07T02:37:13.545Z,62.35
2016-12-07T02:38:12.747Z,62.34
2016-12-07T02:39:13.463Z,62.37
2016-12-07T02:40:14.979Z,62.32
2016-12-07T02:41:14.844Z,62.33
2016-12-07T02:42:11.952Z,62.19
2016-12-07T02:43:12.671Z,61.33
2016-12-07T02:44:13.202Z,61.11
2016-12-07T02:45:12.663Z,60.91
2016-12-07T02:46:12.717Z,60.86
2016-12-07T02:47:13.234Z,60.85
2016-12-07T02:48:13.982Z,60.82
2016-12-07T02:49:17.541Z,60.80
2016-12-07T02:50:13.604Z,60.88
2016-12-07T02:51:12.722Z,61.85
2016-12-07T02:52:11.102Z,62.08
2016-12-07T02:53:18.199Z,62.15
2016-12-07T02:54:14.201Z,62.18
2016-12-07T02:55:12.381Z,62.21
2016-12-07T02:56:13.958Z,62.27
2016-12-07T02:57:11.936Z,62.27
2016-12-07T02:58:12.760Z,62.29
2016-12-07T02:59:13.406Z,62.31
2016-12-07T03:00:13.572Z,62.33
2016-12-07T03:01:13.085Z,62.21
2016-12-07T03:02:12.245Z,61.34
2016-12-07T03:03:14.682Z,61.10
2016-12-07T03:04:12.853Z,60.98
2016-12-07T03:05:15.285Z,61.13
2016-12-07T03:06:12.775Z,61.87
2016-12-07T03:07:12.706Z,62.06
2016-12-07T03:08:13.444Z,62.14
2016-12-07T03:09:12.576Z,62.27
2016-12-07T03:10:12.817Z,62.27
2016-12-07T03:11:12.858Z,62.27
2016-12-07T03:12:13.779Z,62.30
2016-12-07T03:13:12.901Z,62.29
2016-12-07T03:14:13.777Z,62.33
2016-12-07T03:15:13.465Z,62.35
2016-12-07T03:16:13.151Z,62.21
2016-12-07T03:17:12.273Z,61.40
2016-12-07T03:18:15.079Z,62.09
2016-12-07T03:19:11.310Z,62.04
2016-12-07T03:20:12.854Z,61.21
2016-12-07T03:21:13.145Z,60.96
2016-12-07T03:22:12.988Z,60.94
2016-12-07T03:23:12.937Z,61.25
2016-12-07T03:24:12.870Z,61.84
2016-12-07T03:25:13.090Z,62.02
2016-12-07T03:26:14.048Z,62.14
2016-12-07T03:27:12.319Z,62.19
2016-12-07T03:28:12.380Z,62.23
2016-12-07T03:29:12.691Z,62.24
2016-12-07T03:30:12.866Z,62.25
2016-12-07T03:31:13.451Z,62.26
2016-12-07T03:32:12.788Z,62.25
2016-12-07T03:33:13.562Z,62.30
2016-12-07T03:34:13.141Z,62.27
2016-12-07T03:35:12.258Z,62.22
2016-12-07T03:36:13.006Z,62.23
2016-12-07T03:37:12.819Z,62.24
2016-12-07T03:38:12.818Z,62.27
2016-12-07T03:39:13.296Z,62.26
2016-12-07T03:40:12.387Z,62.27
2016-12-07T03:41:12.531Z,62.24
2016-12-07T03:42:13.738Z,62.31
2016-12-07T03:43:13.567Z,62.31
2016-12-07T03:44:13.162Z,62.29
2016-12-07T03:45:12.423Z,62.30
2016-12-07T03:46:13.010Z,62.33
2016-12-07T03:47:12.098Z,62.28
2016-12-07T03:48:12.925Z,62.34
2016-12-07T03:49:12.991Z,62.28
2016-12-07T03:50:10.217Z,62.33
2016-12-07T03:51:12.370Z,61.49
2016-12-07T03:52:12.542Z,62.09
2016-12-07T03:53:16.026Z,62.18
2016-12-07T03:54:13.168Z,62.21
2016-12-07T03:55:12.242Z,62.25
2016-12-07T03:56:12.368Z,62.23
2016-12-07T03:57:12.508Z,62.27
2016-12-07T03:58:15.442Z,62.30
2016-12-07T03:59:13.119Z,62.31
2016-12-07T04:00:12.080Z,62.30
2016-12-07T04:01:13.782Z,62.34
2016-12-07T04:02:12.751Z,62.26
2016-12-07T04:03:14.487Z,62.23
2016-12-07T04:04:11.633Z,62.30
2016-12-07T04:05:14.219Z,62.29
2016-12-07T04:06:13.766Z,62.15
2016-12-07T04:07:12.957Z,61.28
2016-12-07T04:08:13.600Z,61.09
2016-12-07T04:09:12.717Z,61.93
2016-12-07T04:10:14.861Z,62.08
2016-12-07T04:11:12.822Z,62.13
2016-12-07T04:12:12.856Z,62.16
2016-12-07T04:13:13.040Z,62.17
2016-12-07T04:14:13.323Z,62.20
2016-12-07T04:15:13.752Z,62.23
2016-12-07T04:16:14.648Z,62.24
2016-12-07T04:17:12.713Z,62.21
2016-12-07T04:18:12.798Z,62.26
2016-12-07T04:19:14.283Z,62.25
2016-12-07T04:20:13.060Z,62.25
2016-12-07T04:21:18.348Z,62.29
2016-12-07T04:22:13.040Z,62.30
2016-12-07T04:23:14.378Z,62.28
2016-12-07T04:24:09.697Z,62.28
2016-12-07T04:25:12.784Z,62.27
2016-12-07T04:26:12.927Z,62.28
2016-12-07T04:27:13.890Z,62.30
2016-12-07T04:28:12.211Z,62.29
2016-12-07T04:29:12.377Z,62.26
2016-12-07T04:30:13.738Z,62.26
2016-12-07T04:31:13.564Z,62.29
2016-12-07T04:32:12.996Z,62.28
2016-12-07T04:33:12.451Z,62.27
2016-12-07T04:34:12.933Z,62.27
2016-12-07T04:35:12.173Z,62.26
2016-12-07T04:36:12.955Z,62.27
2016-12-07T04:37:13.101Z,62.23
2016-12-07T04:38:12.689Z,62.31
2016-12-07T04:39:11.636Z,62.21
2016-12-07T04:40:12.854Z,62.31
2016-12-07T04:41:13.092Z,62.29
2016-12-07T04:42:12.326Z,62.29
2016-12-07T04:43:18.244Z,62.27
2016-12-07T04:44:12.354Z,62.28
2016-12-07T04:45:15.237Z,62.28
2016-12-07T04:46:12.473Z,62.28
2016-12-07T04:47:13.361Z,62.34
2016-12-07T04:48:12.733Z,62.31
2016-12-07T04:49:14.416Z,62.26
2016-12-07T04:50:16.263Z,62.26
2016-12-07T04:51:12.304Z,62.23
2016-12-07T04:52:12.605Z,62.23
2016-12-07T04:53:14.624Z,62.23
2016-12-07T04:54:12.645Z,62.25
2016-12-07T04:55:14.169Z,62.24
2016-12-07T04:56:12.839Z,62.23
2016-12-07T04:57:13.521Z,62.22
2016-12-07T04:58:13.403Z,62.28
2016-12-07T04:59:12.794Z,62.22
2016-12-07T05:00:13.510Z,62.25
2016-12-07T05:01:13.492Z,62.22
2016-12-07T05:02:13.427Z,62.23
2016-12-07T05:03:12.691Z,62.30
2016-12-07T05:04:13.497Z,62.30
2016-12-07T05:05:13.036Z,62.27
2016-12-07T05:06:13.142Z,62.30
2016-12-07T05:07:12.852Z,62.35
2016-12-07T05:08:13.342Z,62.28
2016-12-07T05:09:14.256Z,62.25
2016-12-07T05:10:09.676Z,62.27
2016-12-07T05:11:11.576Z,62.28
2016-12-07T05:12:12.736Z,61.29
2016-12-07T05:13:13.107Z,60.99
2016-12-07T05:14:12.255Z,60.90
2016-12-07T05:15:12.754Z,60.81
2016-12-07T05:16:12.783Z,61.14
2016-12-07T05:17:14.302Z,61.82
2016-12-07T05:18:12.765Z,62.05
2016-12-07T05:19:13.535Z,62.19
2016-12-07T05:20:14.303Z,62.24
2016-12-07T05:21:12.872Z,62.27
2016-12-07T05:22:11.910Z,62.21
2016-12-07T05:23:13.760Z,62.08
2016-12-07T05:24:14.433Z,61.23
2016-12-07T05:25:18.710Z,61.02
2016-12-07T05:26:13.263Z,60.95
2016-12-07T05:27:12.465Z,60.85
2016-12-07T05:28:13.291Z,60.78
2016-12-07T05:29:12.266Z,60.80
2016-12-07T05:30:13.490Z,60.74
2016-12-07T05:31:13.459Z,60.75
2016-12-07T05:32:11.568Z,60.78
2016-12-07T05:33:13.417Z,60.72
2016-12-07T05:34:12.948Z,60.68
2016-12-07T05:35:12.369Z,60.68
2016-12-07T05:36:13.064Z,60.74
2016-12-07T05:37:13.908Z,60.73
2016-12-07T05:38:13.485Z,60.74
2016-12-07T05:39:13.315Z,60.77
2016-12-07T05:40:12.977Z,61.63
2016-12-07T05:41:12.542Z,61.89
2016-12-07T05:42:12.827Z,61.98
2016-12-07T05:43:13.381Z,61.95
2016-12-07T05:44:13.490Z,61.13
2016-12-07T05:45:13.691Z,61.29
2016-12-07T05:46:13.211Z,61.83
2016-12-07T05:47:13.797Z,61.99
2016-12-07T05:48:13.569Z,62.06
2016-12-07T05:49:12.561Z,62.15
2016-12-07T05:50:12.579Z,62.15
2016-12-07T05:51:11.480Z,62.16
2016-12-07T05:52:12.685Z,62.22
2016-12-07T05:53:12.831Z,62.21
2016-12-07T05:54:13.542Z,62.17
2016-12-07T05:55:13.154Z,62.19
2016-12-07T05:56:13.299Z,62.19
2016-12-07T05:57:12.862Z,62.21
2016-12-07T05:58:13.066Z,62.19
2016-12-07T05:59:12.138Z,62.20
2016-12-07T06:00:12.058Z,62.21
2016-12-07T06:01:12.909Z,62.19
2016-12-07T06:02:13.007Z,62.22
2016-12-07T06:03:12.244Z,62.22
2016-12-07T06:04:13.971Z,62.25
2016-12-07T06:05:10.605Z,62.20
2016-12-07T06:06:13.411Z,62.22
2016-12-07T06:07:12.411Z,62.20
2016-12-07T06:08:12.914Z,62.23
2016-12-07T06:09:12.792Z,62.17
2016-12-07T06:10:12.962Z,62.14
2016-12-07T06:11:11.967Z,62.21
2016-12-07T06:12:12.180Z,62.24
2016-12-07T06:13:12.907Z,62.21
2016-12-07T06:14:12.251Z,62.37
2016-12-07T06:15:14.158Z,62.22
2016-12-07T06:16:13.985Z,62.48
2016-12-07T06:17:18.122Z,62.52
2016-12-07T06:18:13.012Z,62.57
2016-12-07T06:19:13.029Z,62.55
2016-12-07T06:20:12.695Z,62.49
2016-12-07T06:21:10.963Z,62.50
2016-12-07T06:22:12.668Z,62.52
2016-12-07T06:23:13.050Z,62.52
2016-12-07T06:24:14.022Z,62.54
2016-12-07T06:25:12.684Z,62.59
2016-12-07T06:26:12.832Z,62.57
2016-12-07T06:27:13.326Z,62.55
2016-12-07T06:28:12.608Z,62.62
2016-12-07T06:29:12.719Z,62.64
2016-12-07T06:30:13.092Z,62.65
2016-12-07T06:31:12.465Z,62.68
2016-12-07T06:32:12.914Z,62.70
2016-12-07T06:33:12.956Z,62.70
2016-12-07T06:34:12.038Z,62.70
2016-12-07T06:35:12.287Z,62.77
2016-12-07T06:36:12.496Z,62.73
2016-12-07T06:37:14.195Z,62.75
2016-12-07T06:38:12.369Z,62.77
2016-12-07T06:39:12.552Z,62.77
2016-12-07T06:40:12.669Z,62.80
2016-12-07T06:41:11.764Z,62.85
2016-12-07T06:42:13.380Z,62.89
2016-12-07T06:43:19.964Z,62.88
2016-12-07T06:44:12.622Z,63.06
2016-12-07T06:45:13.327Z,63.01
2016-12-07T06:46:12.894Z,63.18
2016-12-07T06:47:14.676Z,43.35
2016-12-07T06:48:13.233Z,38.13
2016-12-07T06:49:12.815Z,37.46
2016-12-07T06:50:12.978Z,37.11
2016-12-07T06:51:12.271Z,37.14
2016-12-07T06:52:14.852Z,37.25
2016-12-07T06:53:12.938Z,37.66
2016-12-07T06:54:11.013Z,38.78
2016-12-07T06:55:11.310Z,39.84
2016-12-07T06:56:12.172Z,40.42
2016-12-07T06:57:14.153Z,41.73
2016-12-07T06:58:13.977Z,43.96
2016-12-07T06:59:13.284Z,45.10
2016-12-07T07:00:11.560Z,46.74
2016-12-07T07:01:12.913Z,46.95
2016-12-07T07:02:20.468Z,48.67
2016-12-07T07:03:14.345Z,48.83
2016-12-07T07:04:12.439Z,49.86
2016-12-07T07:05:19.915Z,50.22
2016-12-07T07:06:11.841Z,50.55
2016-12-07T07:07:10.246Z,50.15
2016-12-07T07:08:13.359Z,50.30
2016-12-07T07:09:13.191Z,51.42
2016-12-07T07:10:12.975Z,51.73
2016-12-07T07:11:11.182Z,51.74
2016-12-07T07:12:12.296Z,51.42
2016-12-07T07:13:12.825Z,51.57
2016-12-07T07:14:13.505Z,51.95
2016-12-07T07:15:12.650Z,52.72
2016-12-07T07:16:13.174Z,52.83
2016-12-07T07:17:12.446Z,53.58
2016-12-07T07:18:13.394Z,53.79
2016-12-07T07:19:12.874Z,53.90
2016-12-07T07:20:12.947Z,54.02
2016-12-07T07:21:12.099Z,54.10
2016-12-07T07:22:18.440Z,54.16
2016-12-07T07:23:12.523Z,54.15
2016-12-07T07:24:12.651Z,54.20
2016-12-07T07:25:15.352Z,54.32
2016-12-07T07:26:13.056Z,54.37
2016-12-07T07:27:12.385Z,54.31
2016-12-07T07:28:12.470Z,54.32
2016-12-07T07:29:16.658Z,54.45
2016-12-07T07:30:13.047Z,54.48
2016-12-07T07:31:11.384Z,54.68
2016-12-07T07:32:12.366Z,54.65
2016-12-07T07:33:13.026Z,54.68
2016-12-07T07:34:12.795Z,54.54
2016-12-07T07:35:11.382Z,54.70
2016-12-07T07:36:11.628Z,54.03
2016-12-07T07:37:13.197Z,54.95
2016-12-07T07:38:13.935Z,55.01
2016-12-07T07:39:13.640Z,55.15
2016-12-07T07:40:14.436Z,55.24
2016-12-07T07:41:12.420Z,55.26
2016-12-07T07:42:12.426Z,55.33
2016-12-07T07:43:12.452Z,55.46
2016-12-07T07:44:12.619Z,55.53
2016-12-07T07:45:13.299Z,55.64
2016-12-07T07:46:13.690Z,55.80
2016-12-07T07:47:13.344Z,55.88
2016-12-07T07:48:13.632Z,55.95
2016-12-07T07:49:12.659Z,56.05
2016-12-07T07:50:12.768Z,56.16
2016-12-07T07:51:12.942Z,56.27
2016-12-07T07:52:14.055Z,56.31
2016-12-07T07:53:11.323Z,56.48
2016-12-07T07:54:13.822Z,56.56
2016-12-07T07:55:13.407Z,56.62
2016-12-07T07:56:13.552Z,56.69
2016-12-07T07:57:11.409Z,56.72
2016-12-07T07:58:11.507Z,56.77
2016-12-07T07:59:14.146Z,56.80
2016-12-07T08:00:12.661Z,56.90
2016-12-07T08:01:13.283Z,56.96
2016-12-07T08:02:12.551Z,57.04
2016-12-07T08:03:14.396Z,57.08
2016-12-07T08:04:13.324Z,57.16
2016-12-07T08:05:12.975Z,57.19
2016-12-07T08:06:12.229Z,57.24
2016-12-07T08:07:12.295Z,57.27
2016-12-07T08:08:13.819Z,57.31
2016-12-07T08:09:12.900Z,57.36
2016-12-07T08:10:14.563Z,57.40
2016-12-07T08:11:12.564Z,57.43
2016-12-07T08:12:12.595Z,57.48
2016-12-07T08:13:12.786Z,57.51
2016-12-07T08:14:12.935Z,57.56
2016-12-07T08:15:12.985Z,57.57
2016-12-07T08:16:12.706Z,57.62
2016-12-07T08:17:13.294Z,57.65
2016-12-07T08:18:12.457Z,57.68
2016-12-07T08:19:10.583Z,57.74
2016-12-07T08:20:12.752Z,57.75
2016-12-07T08:21:12.615Z,57.75
2016-12-07T08:22:12.655Z,57.81
2016-12-07T08:23:12.978Z,57.85
2016-12-07T08:24:11.227Z,57.88
2016-12-07T08:25:13.367Z,56.95
2016-12-07T08:26:13.085Z,56.80
2016-12-07T08:27:12.101Z,56.73
2016-12-07T08:28:13.205Z,56.69
2016-12-07T08:29:14.042Z,57.60
2016-12-07T08:30:12.652Z,57.82
2016-12-07T08:31:12.837Z,57.93
2016-12-07T08:32:14.361Z,58.01
2016-12-07T08:33:12.311Z,58.01
2016-12-07T08:34:14.328Z,58.09
2016-12-07T08:35:12.440Z,58.11
2016-12-07T08:36:14.648Z,58.17
2016-12-07T08:37:13.304Z,58.22
2016-12-07T08:38:13.124Z,58.25
2016-12-07T08:39:12.165Z,58.24
2016-12-07T08:40:12.263Z,58.29
2016-12-07T08:41:14.057Z,58.31
2016-12-07T08:42:12.842Z,58.32
2016-12-07T08:43:12.774Z,58.34
2016-12-07T08:44:12.849Z,58.38
2016-12-07T08:45:12.963Z,58.38
2016-12-07T08:46:12.842Z,58.39
2016-12-07T08:47:14.547Z,58.43
2016-12-07T08:48:13.182Z,58.42
2016-12-07T08:49:13.878Z,58.49
2016-12-07T08:50:12.861Z,58.45
2016-12-07T08:51:12.956Z,58.49
2016-12-07T08:52:12.726Z,58.50
2016-12-07T08:53:12.539Z,58.56
2016-12-07T08:54:18.514Z,58.52
2016-12-07T08:55:12.484Z,58.53
2016-12-07T08:56:12.595Z,58.56
2016-12-07T08:57:10.871Z,58.57
2016-12-07T08:58:13.243Z,58.58
2016-12-07T08:59:12.914Z,58.59
2016-12-07T09:00:12.963Z,58.60
2016-12-07T09:01:12.157Z,58.59
2016-12-07T09:02:13.807Z,58.60
2016-12-07T09:03:13.484Z,58.62
2016-12-07T09:04:12.813Z,58.65
2016-12-07T09:05:12.556Z,58.65
2016-12-07T09:06:12.678Z,58.67
2016-12-07T09:07:11.527Z,58.69
2016-12-07T09:08:12.611Z,58.67
2016-12-07T09:09:13.304Z,58.70
2016-12-07T09:10:12.517Z,58.69
2016-12-07T09:11:12.560Z,58.70
2016-12-07T09:12:13.107Z,58.72
2016-12-07T09:13:12.948Z,58.77
2016-12-07T09:14:13.914Z,58.76
2016-12-07T09:15:13.322Z,58.80
2016-12-07T09:16:13.066Z,58.80
2016-12-07T09:17:12.297Z,58.82
2016-12-07T09:18:14.072Z,58.84
2016-12-07T09:19:12.189Z,58.84
2016-12-07T09:20:12.713Z,58.70
2016-12-07T09:21:12.762Z,57.90
2016-12-07T09:22:13.252Z,57.73
2016-12-07T09:23:12.295Z,57.57
2016-12-07T09:24:12.356Z,57.58
2016-12-07T09:25:12.418Z,57.54
2016-12-07T09:26:12.527Z,57.57
2016-12-07T09:27:13.797Z,57.85
2016-12-07T09:28:13.175Z,58.49
2016-12-07T09:29:14.148Z,58.66
2016-12-07T09:30:12.994Z,58.76
2016-12-07T09:31:12.142Z,58.85
2016-12-07T09:32:12.318Z,58.90
2016-12-07T09:33:12.928Z,58.92
2016-12-07T09:34:12.930Z,58.89
2016-12-07T09:35:13.865Z,58.89
2016-12-07T09:36:13.112Z,58.92
2016-12-07T09:37:12.902Z,58.95
2016-12-07T09:38:19.955Z,58.97
2016-12-07T09:39:12.011Z,58.99
2016-12-07T09:40:12.874Z,59.00
2016-12-07T09:41:13.076Z,59.04
2016-12-07T09:42:12.218Z,59.04
2016-12-07T09:43:13.100Z,59.01
2016-12-07T09:44:12.233Z,59.01
2016-12-07T09:45:13.118Z,59.02
2016-12-07T09:46:12.207Z,59.03
2016-12-07T09:47:12.269Z,59.04
2016-12-07T09:48:12.848Z,59.05
2016-12-07T09:49:12.917Z,59.03
2016-12-07T09:50:13.482Z,59.12
2016-12-07T09:51:12.698Z,59.14
2016-12-07T09:52:12.787Z,59.14
2016-12-07T09:53:11.754Z,59.14
2016-12-07T09:54:19.301Z,59.13
2016-12-07T09:55:11.487Z,59.19
2016-12-07T09:56:12.556Z,58.25
2016-12-07T09:57:13.572Z,58.04
2016-12-07T09:58:14.427Z,58.19
2016-12-07T09:59:14.204Z,58.81
2016-12-07T10:00:09.693Z,58.99
2016-12-07T10:01:13.550Z,59.03
2016-12-07T10:02:13.179Z,59.10
2016-12-07T10:03:12.764Z,59.16
2016-12-07T10:04:13.312Z,59.05
2016-12-07T10:05:12.531Z,58.28
2016-12-07T10:06:13.291Z,58.08
2016-12-07T10:07:13.042Z,57.96
2016-12-07T10:08:12.909Z,57.95
2016-12-07T10:09:13.396Z,57.87
2016-12-07T10:10:12.880Z,57.84
2016-12-07T10:11:11.844Z,57.87
2016-12-07T10:12:13.166Z,58.06
2016-12-07T10:13:12.944Z,58.79
2016-12-07T10:14:12.620Z,59.00
2016-12-07T10:15:13.484Z,59.17
2016-12-07T10:16:13.300Z,59.23
2016-12-07T10:17:12.510Z,59.17
2016-12-07T10:18:11.319Z,59.21
2016-12-07T10:19:12.477Z,58.44
2016-12-07T10:20:13.966Z,59.14
2016-12-07T10:21:15.044Z,59.27
2016-12-07T10:22:14.643Z,59.34
2016-12-07T10:23:13.340Z,59.36
2016-12-07T10:24:13.068Z,59.53
2016-12-07T10:25:12.403Z,59.00
2016-12-07T10:26:11.587Z,58.75
2016-12-07T10:27:12.995Z,58.05
2016-12-07T10:28:12.860Z,55.91
2016-12-07T10:29:13.271Z,53.79
2016-12-07T10:30:18.761Z,52.45
2016-12-07T10:31:11.479Z,53.31
2016-12-07T10:32:15.465Z,52.25
2016-12-07T10:33:13.027Z,51.33
2016-12-07T10:34:12.947Z,53.86
2016-12-07T10:35:12.200Z,56.84
2016-12-07T10:36:14.223Z,56.76
2016-12-07T10:37:13.953Z,54.05
2016-12-07T10:38:14.707Z,53.90
2016-12-07T10:39:12.746Z,56.31
2016-12-07T10:40:11.874Z,56.97
2016-12-07T10:41:13.529Z,57.24
2016-12-07T10:42:12.535Z,56.59
2016-12-07T10:43:12.521Z,56.64
2016-12-07T10:44:13.248Z,57.27
2016-12-07T10:45:13.152Z,57.46
2016-12-07T10:46:14.078Z,57.57
2016-12-07T10:47:12.185Z,57.65
2016-12-07T10:48:14.014Z,57.73
2016-12-07T10:49:12.692Z,57.71
2016-12-07T10:50:12.848Z,57.70
2016-12-07T10:51:13.522Z,57.67
2016-12-07T10:52:13.163Z,57.67
2016-12-07T10:53:13.916Z,57.76
2016-12-07T10:54:14.607Z,57.81
2016-12-07T10:55:12.735Z,57.84
2016-12-07T10:56:11.651Z,57.88
2016-12-07T10:57:12.758Z,57.94
2016-12-07T10:58:10.384Z,58.02
2016-12-07T10:59:13.075Z,58.08
2016-12-07T11:00:12.300Z,58.19
2016-12-07T11:01:12.880Z,58.23
2016-12-07T11:02:14.567Z,58.22
2016-12-07T11:03:14.207Z,58.23
2016-12-07T11:04:12.257Z,58.21
2016-12-07T11:05:12.173Z,58.24
2016-12-07T11:06:12.403Z,58.30
2016-12-07T11:07:12.567Z,58.27
2016-12-07T11:08:13.149Z,58.19
2016-12-07T11:09:12.686Z,57.93
2016-12-07T11:10:11.085Z,57.81
2016-12-07T11:11:13.314Z,58.34
2016-12-07T11:12:12.360Z,58.52
2016-12-07T11:13:14.566Z,58.51
2016-12-07T11:14:13.387Z,58.49
2016-12-07T11:15:13.482Z,58.51
2016-12-07T11:16:12.627Z,58.50
2016-12-07T11:17:13.241Z,58.51
2016-12-07T11:18:12.407Z,58.48
2016-12-07T11:19:12.571Z,58.48
2016-12-07T11:20:12.648Z,58.50
2016-12-07T11:21:12.749Z,58.62
2016-12-07T11:22:12.723Z,58.56
2016-12-07T11:23:14.430Z,58.59
2016-12-07T11:24:13.131Z,58.63
2016-12-07T11:25:12.287Z,58.63
2016-12-07T11:26:12.769Z,58.64
2016-12-07T11:27:14.548Z,58.63
2016-12-07T11:28:12.508Z,58.65
2016-12-07T11:29:14.362Z,58.69
2016-12-07T11:30:13.143Z,58.75
2016-12-07T11:31:12.219Z,58.80
2016-12-07T11:32:12.325Z,58.85
2016-12-07T11:33:11.422Z,58.67
2016-12-07T11:34:12.518Z,58.23
2016-12-07T11:35:12.759Z,58.75
2016-12-07T11:36:13.073Z,58.89
2016-12-07T11:37:12.120Z,58.96
2016-12-07T11:38:13.777Z,59.00
2016-12-07T11:39:14.398Z,58.97
2016-12-07T11:40:13.231Z,59.26
2016-12-07T11:41:11.468Z,59.12
2016-12-07T11:42:11.556Z,58.48
2016-12-07T11:43:12.982Z,58.34
2016-12-07T11:44:12.082Z,58.34
2016-12-07T11:45:12.600Z,58.38
2016-12-07T11:46:13.200Z,59.36
2016-12-07T11:47:12.932Z,59.51
2016-12-07T11:48:12.713Z,59.66
2016-12-07T11:49:13.470Z,59.71
2016-12-07T11:50:12.489Z,59.80
2016-12-07T11:51:13.328Z,59.90
2016-12-07T11:52:12.924Z,59.70
2016-12-07T11:53:13.480Z,59.74
2016-12-07T11:54:12.990Z,58.99
2016-12-07T11:55:12.673Z,58.92
2016-12-07T11:56:13.283Z,58.84
2016-12-07T11:57:12.824Z,58.75
2016-12-07T11:58:13.059Z,58.79
2016-12-07T11:59:12.040Z,58.81
2016-12-07T12:00:13.002Z,58.85
2016-12-07T12:01:12.986Z,58.80
2016-12-07T12:02:13.050Z,58.87
2016-12-07T12:03:12.713Z,59.74
2016-12-07T12:04:13.354Z,60.05
2016-12-07T12:05:12.541Z,60.18
2016-12-07T12:06:10.937Z,60.24
2016-12-07T12:07:12.208Z,59.27
2016-12-07T12:08:12.306Z,58.97
2016-12-07T12:09:12.328Z,58.81
2016-12-07T12:10:13.219Z,58.91
2016-12-07T12:11:12.885Z,59.06
2016-12-07T12:12:13.020Z,59.02
2016-12-07T12:13:13.822Z,59.00
2016-12-07T12:14:13.066Z,59.80
2016-12-07T12:15:13.680Z,60.11
2016-12-07T12:16:13.654Z,60.34
2016-12-07T12:17:12.918Z,60.39
2016-12-07T12:18:13.097Z,60.48
2016-12-07T12:19:12.079Z,60.54
2016-12-07T12:20:12.572Z,60.62
2016-12-07T12:21:12.564Z,60.72
2016-12-07T12:22:12.954Z,60.56
2016-12-07T12:23:12.141Z,60.69
2016-12-07T12:24:12.950Z,60.63
2016-12-07T12:25:13.801Z,60.71
2016-12-07T12:26:12.812Z,60.67
2016-12-07T12:27:14.262Z,60.65
2016-12-07T12:28:12.806Z,60.75
2016-12-07T12:29:12.864Z,60.76
2016-12-07T12:30:11.753Z,60.77
2016-12-07T12:31:12.896Z,60.79
2016-12-07T12:32:13.600Z,60.79
2016-12-07T12:33:16.241Z,60.72
2016-12-07T12:34:13.057Z,60.73
2016-12-07T12:35:13.774Z,60.68
2016-12-07T12:36:13.647Z,60.49
2016-12-07T12:37:12.756Z,59.67
2016-12-07T12:38:12.974Z,59.41
2016-12-07T12:39:13.660Z,59.37
2016-12-07T12:40:13.308Z,59.57
2016-12-07T12:41:12.279Z,60.21
2016-12-07T12:42:12.260Z,60.38
2016-12-07T12:43:13.534Z,60.47
2016-12-07T12:44:13.140Z,60.50
2016-12-07T12:45:14.609Z,60.53
2016-12-07T12:46:13.381Z,60.46
2016-12-07T12:47:13.034Z,60.49
2016-12-07T12:48:12.150Z,60.51
2016-12-07T12:49:12.301Z,60.54
2016-12-07T12:50:12.326Z,60.54
2016-12-07T12:51:13.059Z,60.53
2016-12-07T12:52:13.929Z,60.52